createdAt,value
2018-07-13T00:02:28.015Z,20.00
2018-07-13T00:04:58.679Z,14.60
2018-07-13T00:07:29.365Z,15.03
2018-07-13T00:09:59.972Z,15.63
2018-07-13T00:12:30.456Z,15.83
2018-07-13T00:15:09.407Z,15.93
2018-07-13T00:17:40.177Z,17.77
2018-07-13T00:20:10.866Z,16.77
2018-07-13T00:22:41.490Z,17.90
2018-07-13T00:25:12.012Z,12.47
2018-07-13T00:27:42.485Z,18.90
2018-07-13T00:30:13.045Z,14.80
2018-07-13T00:32:43.732Z,17.00
2018-07-13T00:35:14.470Z,16.17
2018-07-13T00:37:45.233Z,18.40
2018-07-13T00:40:15.955Z,14.37
2018-07-13T00:42:46.674Z,18.20
2018-07-13T00:45:17.281Z,14.10
2018-07-13T00:47:47.738Z,17.63
2018-07-13T00:50:18.092Z,13.90
2018-07-13T00:52:48.734Z,16.80
2018-07-13T00:55:19.364Z,19.00
2018-07-13T00:57:49.941Z,14.80
2018-07-13T01:00:33.383Z,14.27
2018-07-13T01:03:04.771Z,18.40
2018-07-13T01:05:35.339Z,14.47
2018-07-13T01:08:05.995Z,17.73
2018-07-13T01:10:36.172Z,21.10
2018-07-13T01:13:06.622Z,30.00
2018-07-13T01:15:37.274Z,15.40
2018-07-13T01:18:07.769Z,17.93
2018-07-13T01:20:38.379Z,25.13
2018-07-13T01:23:09.080Z,20.03
2018-07-13T01:25:40.240Z,18.70
2018-07-13T01:28:10.757Z,24.03
2018-07-13T01:30:41.369Z,24.30
2018-07-13T01:33:12.382Z,20.63
2018-07-13T01:35:43.174Z,18.77
2018-07-13T01:38:13.762Z,17.03
2018-07-13T01:40:43.996Z,17.60
2018-07-13T01:43:14.449Z,23.40
2018-07-13T01:45:44.929Z,21.93
2018-07-13T01:48:15.437Z,25.23
2018-07-13T01:50:45.829Z,19.17
2018-07-13T01:53:16.645Z,19.13
2018-07-13T01:55:47.362Z,20.83
2018-07-13T01:58:17.807Z,22.40
2018-07-13T02:00:48.347Z,20.67
2018-07-13T02:03:19.136Z,19.97
2018-07-13T02:05:49.773Z,19.20
2018-07-13T02:08:20.431Z,24.10
2018-07-13T02:10:51.005Z,21.57
2018-07-13T02:13:21.593Z,26.27
2018-07-13T02:15:51.774Z,20.20
2018-07-13T02:18:22.344Z,23.07
2018-07-13T02:20:53.003Z,20.30
2018-07-13T02:23:23.579Z,25.30
2018-07-13T02:25:54.250Z,26.53
2018-07-13T02:28:25.439Z,23.90
2018-07-13T02:30:56.121Z,27.37
2018-07-13T02:33:26.814Z,24.23
2018-07-13T02:35:57.423Z,25.20
2018-07-13T02:38:27.992Z,38.87
2018-07-13T02:40:58.739Z,21.80
2018-07-13T02:43:29.393Z,23.37
2018-07-13T02:46:00.228Z,26.40
2018-07-13T02:48:30.978Z,24.60
2018-07-13T02:51:01.585Z,25.30
2018-07-13T02:53:32.210Z,32.10
2018-07-13T02:56:02.757Z,32.90
2018-07-13T02:58:33.600Z,25.70
2018-07-13T03:01:04.679Z,23.60
2018-07-13T03:03:35.245Z,30.73
2018-07-13T03:06:05.877Z,25.70
2018-07-13T03:08:36.669Z,29.37
2018-07-13T03:11:07.215Z,24.33
2018-07-13T03:13:37.771Z,29.90
2018-07-13T03:16:08.324Z,37.47
2018-07-13T03:18:38.497Z,30.37
2018-07-13T03:21:15.872Z,29.13
2018-07-13T03:23:47.178Z,29.17
2018-07-13T03:26:17.774Z,24.20
2018-07-13T03:28:49.273Z,24.93
2018-07-13T03:31:20.362Z,21.87
2018-07-13T03:33:51.133Z,24.17
2018-07-13T03:36:21.629Z,23.93
2018-07-13T03:38:52.199Z,22.50
2018-07-13T03:41:22.848Z,24.90
2018-07-13T03:43:53.632Z,21.80
2018-07-13T03:46:24.165Z,19.23
2018-07-13T03:48:54.717Z,23.47
2018-07-13T03:51:25.459Z,20.17
2018-07-13T03:53:55.885Z,23.57
2018-07-13T03:56:26.622Z,25.10
2018-07-13T03:58:57.240Z,20.17
2018-07-13T04:01:28.173Z,23.47
2018-07-13T04:03:58.418Z,21.40
2018-07-13T04:06:31.933Z,21.53
2018-07-13T04:09:02.537Z,22.10
2018-07-13T04:11:33.084Z,31.00
2018-07-13T04:14:03.724Z,26.63
2018-07-13T04:16:34.432Z,18.37
2018-07-13T04:19:05.384Z,21.73
2018-07-13T04:21:36.002Z,21.40
2018-07-13T04:24:06.533Z,17.77
2018-07-13T04:26:37.208Z,30.13
2018-07-13T04:29:07.828Z,15.80
2018-07-13T04:31:38.610Z,18.83
2018-07-13T04:34:09.089Z,15.20
2018-07-13T04:36:39.806Z,17.93
2018-07-13T04:39:12.070Z,20.90
2018-07-13T04:41:42.810Z,16.20
2018-07-13T04:44:13.437Z,16.87
2018-07-13T04:46:44.158Z,20.90
2018-07-13T04:49:15.536Z,21.03
2018-07-13T04:51:46.090Z,14.43
2018-07-13T04:54:17.040Z,12.70
2018-07-13T04:56:47.929Z,17.30
2018-07-13T04:59:18.858Z,15.80
2018-07-13T05:01:49.586Z,18.87
2018-07-13T05:04:20.537Z,17.67
2018-07-13T05:06:51.489Z,14.77
2018-07-13T05:09:22.314Z,11.80
2018-07-13T05:11:53.892Z,15.07
2018-07-13T05:14:24.497Z,11.50
2018-07-13T05:16:55.425Z,16.53
2018-07-13T05:19:26.188Z,13.40
2018-07-13T05:21:56.894Z,11.53
2018-07-13T05:24:27.631Z,9.43
2018-07-13T05:26:58.175Z,20.47
2018-07-13T05:29:29.515Z,12.27
2018-07-13T05:32:00.230Z,13.27
2018-07-13T05:34:30.998Z,9.70
2018-07-13T05:37:01.618Z,19.63
2018-07-13T05:39:32.415Z,9.93
2018-07-13T05:42:03.120Z,6.70
2018-07-13T05:44:33.731Z,6.27
2018-07-13T05:47:04.265Z,10.80
2018-07-13T05:49:35.012Z,4.73
2018-07-13T05:52:05.525Z,5.20
2018-07-13T05:54:36.251Z,4.27
2018-07-13T05:57:06.878Z,4.67
2018-07-13T05:59:37.524Z,5.03
2018-07-13T06:02:08.150Z,6.70
2018-07-13T06:04:38.884Z,4.90
2018-07-13T06:07:09.488Z,3.50
2018-07-13T06:09:40.406Z,4.13
2018-07-13T06:12:11.188Z,4.63
2018-07-13T06:14:41.697Z,6.43
2018-07-13T06:17:12.154Z,3.57
2018-07-13T06:19:42.879Z,8.47
2018-07-13T06:22:13.500Z,4.10
2018-07-13T06:24:44.139Z,7.27
2018-07-13T06:27:14.820Z,4.10
2018-07-13T06:29:45.784Z,4.77
2018-07-13T06:32:16.428Z,4.80
2018-07-13T06:34:47.076Z,4.80
2018-07-13T06:37:20.608Z,4.30
2018-07-13T06:39:51.144Z,10.03
2018-07-13T06:42:21.757Z,3.60
2018-07-13T06:44:52.491Z,3.90
2018-07-13T06:47:22.768Z,4.60
2018-07-13T06:49:53.416Z,3.33
2018-07-13T06:52:24.240Z,6.53
2018-07-13T06:54:54.598Z,12.23
2018-07-13T06:57:41.955Z,8.07
2018-07-13T07:01:02.510Z,3.20
2018-07-13T07:03:36.279Z,7.10
2018-07-13T07:06:13.346Z,4.87
2018-07-13T07:08:49.477Z,3.27
2018-07-13T07:11:19.828Z,7.60
2018-07-13T07:13:50.450Z,4.63
2018-07-13T07:16:21.020Z,4.73
2018-07-13T07:18:51.507Z,5.37
2018-07-13T07:21:22.153Z,4.50
2018-07-13T07:23:52.780Z,5.10
2018-07-13T07:26:23.558Z,3.67
2018-07-13T07:28:54.319Z,3.10
2018-07-13T07:31:24.917Z,2.57
2018-07-13T07:33:55.556Z,5.90
2018-07-13T07:36:26.023Z,5.90
2018-07-13T07:38:56.792Z,6.70
2018-07-13T07:41:27.544Z,3.93
2018-07-13T07:43:58.385Z,4.63
2018-07-13T07:46:28.934Z,4.60
2018-07-13T07:48:59.485Z,5.60
2018-07-13T07:51:30.101Z,7.83
2018-07-13T07:54:00.717Z,2.57
2018-07-13T07:56:31.395Z,5.57
2018-07-13T07:59:02.103Z,1.80
2018-07-13T08:01:32.711Z,2.00
2018-07-13T08:04:03.404Z,2.13
2018-07-13T08:06:33.932Z,2.53
2018-07-13T08:09:05.307Z,2.33
2018-07-13T08:11:36.544Z,1.93
2018-07-13T08:14:07.930Z,4.43
2018-07-13T08:16:38.534Z,2.83
2018-07-13T08:19:09.077Z,2.17
2018-07-13T08:21:43.581Z,2.00
2018-07-13T08:24:20.312Z,2.93
2018-07-13T08:26:57.255Z,2.10
2018-07-13T08:29:34.101Z,2.50
2018-07-13T08:32:05.111Z,3.60
2018-07-13T08:34:35.643Z,2.53
2018-07-13T08:37:06.315Z,8.10
2018-07-13T08:39:36.882Z,8.83
2018-07-13T08:42:07.704Z,7.43
2018-07-13T08:44:38.534Z,2.27
2018-07-13T08:47:09.111Z,4.30
2018-07-13T08:49:39.836Z,3.13
2018-07-13T08:52:10.551Z,2.47
2018-07-13T08:54:41.312Z,2.53
2018-07-13T08:57:12.010Z,3.27
2018-07-13T08:59:42.699Z,2.07
2018-07-13T09:02:13.367Z,4.97
2018-07-13T09:04:43.993Z,1.63
2018-07-13T09:07:15.425Z,3.37
2018-07-13T09:09:46.229Z,1.70
2018-07-13T09:12:16.743Z,2.07
2018-07-13T09:14:47.438Z,1.00
2018-07-13T09:17:18.694Z,1.10
2018-07-13T09:19:49.344Z,8.33
2018-07-13T09:22:20.106Z,2.50
2018-07-13T09:24:50.798Z,2.17
2018-07-13T09:27:21.191Z,1.27
2018-07-13T09:29:51.653Z,1.60
2018-07-13T09:32:22.206Z,2.30
2018-07-13T09:34:52.821Z,1.33
2018-07-13T09:37:24.015Z,1.60
2018-07-13T09:39:55.858Z,2.10
2018-07-13T09:42:26.578Z,1.60
2018-07-13T09:44:57.195Z,1.60
2018-07-13T09:47:28.322Z,1.67
2018-07-13T09:49:59.072Z,2.83
2018-07-13T09:52:29.696Z,3.33
2018-07-13T09:55:06.881Z,2.03
2018-07-13T09:57:37.575Z,2.33
2018-07-13T10:00:10.320Z,5.40
2018-07-13T10:02:41.083Z,2.00
2018-07-13T10:05:11.661Z,2.20
2018-07-13T10:07:42.534Z,1.90
2018-07-13T10:10:13.248Z,2.50
2018-07-13T10:12:43.981Z,2.97
2018-07-13T10:15:14.696Z,1.60
2018-07-13T10:17:45.348Z,2.40
2018-07-13T10:20:16.069Z,2.67
2018-07-13T10:22:46.609Z,5.03
2018-07-13T10:25:17.430Z,2.43
2018-07-13T10:27:48.070Z,3.83
2018-07-13T10:30:18.810Z,3.57
2018-07-13T10:32:49.399Z,1.90
2018-07-13T10:35:20.226Z,2.50
2018-07-13T10:37:50.709Z,2.77
2018-07-13T10:40:21.320Z,1.90
2018-07-13T10:42:51.853Z,1.90
2018-07-13T10:45:22.190Z,2.20
2018-07-13T10:47:52.732Z,1.93
2018-07-13T10:50:23.601Z,2.10
2018-07-13T10:52:54.144Z,5.10
2018-07-13T10:55:25.062Z,1.77
2018-07-13T10:57:55.746Z,13.60
2018-07-13T11:00:26.282Z,3.07
2018-07-13T11:02:57.022Z,2.03
2018-07-13T11:05:27.564Z,3.80
2018-07-13T11:07:58.322Z,1.43
2018-07-13T11:10:29.042Z,2.37
2018-07-13T11:12:59.529Z,1.70
2018-07-13T11:15:30.060Z,1.90
2018-07-13T11:18:00.553Z,2.00
2018-07-13T11:20:31.207Z,3.43
2018-07-13T11:23:02.056Z,4.23
2018-07-13T11:25:32.756Z,1.60
2018-07-13T11:28:03.397Z,1.80
2018-07-13T11:30:34.044Z,2.30
2018-07-13T11:33:05.129Z,2.20
2018-07-13T11:35:35.786Z,2.17
2018-07-13T11:38:06.563Z,1.90
2018-07-13T11:40:37.170Z,4.10
2018-07-13T11:43:07.908Z,2.53
2018-07-13T11:45:38.757Z,2.77
2018-07-13T11:48:09.229Z,2.20
2018-07-13T11:50:40.018Z,1.83
2018-07-13T11:53:10.650Z,2.03
2018-07-13T11:55:41.523Z,2.00
2018-07-13T11:58:12.138Z,1.60
2018-07-13T12:00:42.786Z,2.03
2018-07-13T12:03:13.309Z,2.37
2018-07-13T12:05:43.933Z,1.57
2018-07-13T12:08:14.928Z,2.17
2018-07-13T12:10:52.122Z,4.60
2018-07-13T12:13:22.748Z,4.50
2018-07-13T12:15:53.226Z,3.50
2018-07-13T12:18:23.870Z,2.03
2018-07-13T12:20:54.657Z,3.73
2018-07-13T12:23:25.113Z,2.80
2018-07-13T12:25:55.398Z,2.00
2018-07-13T12:28:25.863Z,4.73
2018-07-13T12:30:56.417Z,3.90
2018-07-13T12:33:27.224Z,2.63
2018-07-13T12:35:57.771Z,3.13
2018-07-13T12:38:28.371Z,3.37
2018-07-13T12:40:59.035Z,2.30
2018-07-13T12:43:29.656Z,5.33
2018-07-13T12:46:06.812Z,2.27
2018-07-13T12:48:37.445Z,2.50
2018-07-13T12:51:08.922Z,2.20
2018-07-13T12:53:39.395Z,2.33
2018-07-13T12:56:10.102Z,2.83
2018-07-13T12:58:41.373Z,2.73
2018-07-13T13:01:12.054Z,1.67
2018-07-13T13:03:42.876Z,2.90
2018-07-13T13:06:13.429Z,1.83
2018-07-13T13:08:44.201Z,3.33
2018-07-13T13:11:15.016Z,1.73
2018-07-13T13:13:46.254Z,1.93
2018-07-13T13:16:16.930Z,5.20
2018-07-13T13:18:47.502Z,1.93
2018-07-13T13:21:18.129Z,2.20
2018-07-13T13:23:55.471Z,6.50
2018-07-13T13:26:26.024Z,2.33
2018-07-13T13:28:56.527Z,2.70
2018-07-13T13:31:27.368Z,5.90
2018-07-13T13:33:57.954Z,3.60
2018-07-13T13:36:28.515Z,2.87
2018-07-13T13:38:58.992Z,2.00
2018-07-13T13:41:29.526Z,2.73
2018-07-13T13:44:00.002Z,1.90
2018-07-13T13:46:30.620Z,2.93
2018-07-13T13:49:01.348Z,3.90
2018-07-13T13:51:32.057Z,5.67
2018-07-13T13:54:02.900Z,2.80
2018-07-13T13:56:33.649Z,4.30
2018-07-13T13:59:04.354Z,3.73
2018-07-13T14:01:35.062Z,3.40
2018-07-13T14:04:05.843Z,2.83
2018-07-13T14:06:36.786Z,2.33
2018-07-13T14:09:08.248Z,2.13
2018-07-13T14:11:38.884Z,2.37
2018-07-13T14:14:09.497Z,2.70
2018-07-13T14:16:40.171Z,2.43
2018-07-13T14:19:10.638Z,2.57
2018-07-13T14:21:41.153Z,2.10
2018-07-13T14:24:11.411Z,4.30
2018-07-13T14:26:41.960Z,4.10
2018-07-13T14:29:13.215Z,2.80
2018-07-13T14:31:43.804Z,3.27
2018-07-13T14:34:14.555Z,2.43
2018-07-13T14:36:45.437Z,3.00
2018-07-13T14:39:16.131Z,4.10
2018-07-13T14:41:46.845Z,2.63
2018-07-13T14:44:17.522Z,3.37
2018-07-13T14:46:48.114Z,4.77
2018-07-13T14:49:18.753Z,2.43
2018-07-13T14:51:49.594Z,2.43
2018-07-13T14:54:20.226Z,2.13
2018-07-13T14:56:50.746Z,3.53
2018-07-13T14:59:21.235Z,2.57
2018-07-13T15:01:51.898Z,3.60
2018-07-13T15:04:22.738Z,3.70
2018-07-13T15:06:53.657Z,5.03
2018-07-13T15:09:24.220Z,3.23
2018-07-13T15:11:55.024Z,6.10
2018-07-13T15:14:25.659Z,6.00
2018-07-13T15:16:56.378Z,2.60
2018-07-13T15:19:27.252Z,5.13
2018-07-13T15:21:57.980Z,2.70
2018-07-13T15:24:28.580Z,4.87
2018-07-13T15:26:59.161Z,2.80
2018-07-13T15:29:29.841Z,2.20
2018-07-13T15:32:00.505Z,3.67
2018-07-13T15:34:31.446Z,3.93
2018-07-13T15:37:02.185Z,2.70
2018-07-13T15:39:37.202Z,3.60
2018-07-13T15:42:08.812Z,2.97
2018-07-13T15:44:39.497Z,2.67
2018-07-13T15:47:09.704Z,2.17
2018-07-13T15:49:40.976Z,4.30
2018-07-13T15:52:11.592Z,2.80
2018-07-13T15:54:42.319Z,6.43
2018-07-13T15:57:12.922Z,2.77
2018-07-13T15:59:43.473Z,2.20
2018-07-13T16:02:14.014Z,2.93
2018-07-13T16:04:44.285Z,3.70
2018-07-13T16:07:14.667Z,13.03
2018-07-13T16:09:45.188Z,2.63
2018-07-13T16:12:15.687Z,2.23
2018-07-13T16:14:46.374Z,2.93
2018-07-13T16:17:17.098Z,2.83
2018-07-13T16:19:47.824Z,3.43
2018-07-13T16:22:18.698Z,2.40
2018-07-13T16:24:49.267Z,4.50
2018-07-13T16:27:19.908Z,3.90
2018-07-13T16:29:50.580Z,3.47
2018-07-13T16:32:21.120Z,3.00
2018-07-13T16:34:51.717Z,10.33
2018-07-13T16:37:22.353Z,4.67
2018-07-13T16:39:53.623Z,3.60
2018-07-13T16:42:24.287Z,3.07
2018-07-13T16:44:54.873Z,3.00
2018-07-13T16:47:25.292Z,4.23
2018-07-13T16:49:56.535Z,2.27
2018-07-13T16:52:27.218Z,7.50
2018-07-13T16:54:57.900Z,7.23
2018-07-13T16:57:28.664Z,4.50
2018-07-13T16:59:59.374Z,2.60
2018-07-13T17:02:30.115Z,2.50
2018-07-13T17:05:00.790Z,3.57
2018-07-13T17:07:31.268Z,8.23
2018-07-13T17:10:02.647Z,3.30
2018-07-13T17:12:33.146Z,4.80
2018-07-13T17:15:03.703Z,2.60
2018-07-13T17:17:34.453Z,4.50
2018-07-13T17:20:05.112Z,5.80
2018-07-13T17:22:35.605Z,3.83
2018-07-13T17:25:06.415Z,5.60
2018-07-13T17:27:37.040Z,2.87
2018-07-13T17:30:09.478Z,2.90
2018-07-13T17:32:40.154Z,3.33
2018-07-13T17:35:10.981Z,3.07
2018-07-13T17:37:41.877Z,8.00
2018-07-13T17:40:12.617Z,7.30
2018-07-13T17:42:43.352Z,4.40
2018-07-13T17:45:14.045Z,2.93
2018-07-13T17:47:46.090Z,5.43
2018-07-13T17:50:16.885Z,4.73
2018-07-13T17:52:47.579Z,6.60
2018-07-13T17:55:18.299Z,2.90
2018-07-13T17:57:48.801Z,7.23
2018-07-13T18:00:18.976Z,3.37
2018-07-13T18:02:49.299Z,3.90
2018-07-13T18:05:20.135Z,6.70
2018-07-13T18:07:50.754Z,2.90
2018-07-13T18:10:21.565Z,3.63
2018-07-13T18:12:51.845Z,3.03
2018-07-13T18:15:22.512Z,5.20
2018-07-13T18:17:52.734Z,3.57
2018-07-13T18:20:24.229Z,5.63
2018-07-13T18:22:54.840Z,3.87
2018-07-13T18:25:25.077Z,3.77
2018-07-13T18:27:55.982Z,12.57
2018-07-13T18:30:26.302Z,3.70
2018-07-13T18:32:56.726Z,4.03
2018-07-13T18:35:27.462Z,4.37
2018-07-13T18:37:58.695Z,5.13
2018-07-13T18:40:29.336Z,7.50
2018-07-13T18:42:59.972Z,7.10
2018-07-13T18:45:30.734Z,9.30
2018-07-13T18:48:01.366Z,5.00
2018-07-13T18:50:32.205Z,6.17
2018-07-13T18:53:02.898Z,8.90
2018-07-13T18:55:34.133Z,8.50
2018-07-13T18:58:04.710Z,4.20
2018-07-13T19:00:35.552Z,4.90
2018-07-13T19:03:06.651Z,10.00
2018-07-13T19:05:37.454Z,3.83
2018-07-13T19:08:08.165Z,9.27
2018-07-13T19:10:38.784Z,11.00
2018-07-13T19:13:09.145Z,4.20
2018-07-13T19:15:39.690Z,23.43
2018-07-13T19:18:10.898Z,6.17
2018-07-13T19:20:41.122Z,4.23
2018-07-13T19:23:11.541Z,16.63
2018-07-13T19:25:42.293Z,10.77
2018-07-13T19:28:12.815Z,4.50
2018-07-13T19:30:44.208Z,30.80
2018-07-13T19:33:14.973Z,4.23
2018-07-13T19:35:45.625Z,7.97
2018-07-13T19:38:16.252Z,10.70
2018-07-13T19:40:47.044Z,10.83
2018-07-13T19:43:17.623Z,5.33
2018-07-13T19:45:48.230Z,6.20
2018-07-13T19:48:18.672Z,5.53
2018-07-13T19:50:48.825Z,7.83
2018-07-13T19:53:19.310Z,4.97
2018-07-13T19:55:50.138Z,10.37
2018-07-13T19:58:20.848Z,10.30
2018-07-13T20:00:51.376Z,6.50
2018-07-13T20:03:21.969Z,8.00
2018-07-13T20:05:52.599Z,5.70
2018-07-13T20:08:23.333Z,11.47
2018-07-13T20:10:54.002Z,6.13
2018-07-13T20:13:24.641Z,10.53
2018-07-13T20:15:55.320Z,18.87
2018-07-13T20:18:26.460Z,6.13
2018-07-13T20:20:57.178Z,8.30
2018-07-13T20:23:27.883Z,9.93
2018-07-13T20:25:58.611Z,5.53
2018-07-13T20:28:29.319Z,10.90
2018-07-13T20:31:00.149Z,10.80
2018-07-13T20:33:30.771Z,6.27
2018-07-13T20:36:01.191Z,12.13
2018-07-13T20:38:31.741Z,7.20
2018-07-13T20:41:02.287Z,6.20
2018-07-13T20:43:33.057Z,9.37
2018-07-13T20:46:03.846Z,4.03
2018-07-13T20:48:35.847Z,6.67
2018-07-13T20:51:06.572Z,4.37
2018-07-13T20:53:37.261Z,7.63
2018-07-13T20:56:08.105Z,6.40
2018-07-13T20:58:38.830Z,5.43
2018-07-13T21:01:09.715Z,4.83
2018-07-13T21:03:40.478Z,14.40
2018-07-13T21:06:10.825Z,4.53
2018-07-13T21:08:41.401Z,7.20
2018-07-13T21:11:11.904Z,4.33
2018-07-13T21:13:42.668Z,4.70
2018-07-13T21:16:13.238Z,4.43
2018-07-13T21:18:44.084Z,6.03
2018-07-13T21:21:14.698Z,10.00
2018-07-13T21:23:45.348Z,10.60
2018-07-13T21:26:16.166Z,4.90
2018-07-13T21:28:46.794Z,5.03
2018-07-13T21:31:18.076Z,4.33
2018-07-13T21:33:49.325Z,4.70
2018-07-13T21:36:20.345Z,4.80
2018-07-13T21:38:51.689Z,4.50
2018-07-13T21:41:22.325Z,5.30
2018-07-13T21:43:52.905Z,4.37
2018-07-13T21:46:23.640Z,4.43
2018-07-13T21:48:54.265Z,4.10
2018-07-13T21:51:24.895Z,5.40
2018-07-13T21:53:55.583Z,4.10
2018-07-13T21:56:26.740Z,3.60
2018-07-13T21:58:57.273Z,4.40
2018-07-13T22:01:27.941Z,9.20
2018-07-13T22:03:58.598Z,7.57
2018-07-13T22:06:29.348Z,8.07
2018-07-13T22:08:59.942Z,4.30
2018-07-13T22:11:30.636Z,9.63
2018-07-13T22:14:01.313Z,4.67
2018-07-13T22:16:32.394Z,7.83
2018-07-13T22:19:03.221Z,3.30
2018-07-13T22:21:34.574Z,6.03
2018-07-13T22:24:05.188Z,6.83
2018-07-13T22:26:35.767Z,4.10
2018-07-13T22:29:06.256Z,4.60
2018-07-13T22:31:36.921Z,8.53
2018-07-13T22:34:10.617Z,4.50
2018-07-13T22:36:41.130Z,4.83
2018-07-13T22:39:11.860Z,4.70
2018-07-13T22:41:42.350Z,5.77
2018-07-13T22:44:13.033Z,4.63
2018-07-13T22:46:43.752Z,4.80
2018-07-13T22:49:15.000Z,4.97
2018-07-13T22:51:45.489Z,4.50
2018-07-13T22:54:16.264Z,3.97
2018-07-13T22:56:46.429Z,4.73
2018-07-13T22:59:16.893Z,8.60
2018-07-13T23:01:47.366Z,4.80
2018-07-13T23:04:17.957Z,5.00
2018-07-13T23:06:48.192Z,3.93
2018-07-13T23:09:18.718Z,5.33
2018-07-13T23:11:49.394Z,4.67
2018-07-13T23:14:20.054Z,4.33
2018-07-13T23:16:50.902Z,4.40
2018-07-13T23:19:21.565Z,4.40
2018-07-13T23:21:52.618Z,4.80
2018-07-13T23:24:23.359Z,7.23
2018-07-13T23:26:54.133Z,10.53
2018-07-13T23:29:24.402Z,12.20
2018-07-13T23:31:55.076Z,4.73
2018-07-13T23:34:25.648Z,7.07
2018-07-13T23:36:56.201Z,6.60
2018-07-13T23:39:26.918Z,5.70
2018-07-13T23:41:57.552Z,4.13
2018-07-13T23:44:28.185Z,5.10
2018-07-13T23:46:58.702Z,4.70
2018-07-13T23:49:32.144Z,6.00
2018-07-13T23:52:02.841Z,6.67
2018-07-13T23:54:33.477Z,4.87
2018-07-13T23:57:04.194Z,4.73
2018-07-13T23:59:35.091Z,5.27
